Pocahontas, AR

7:17 PM CDT on September 19, 2014 (GMT -0500)
Rural Ravenden Springs | Change Station
CLOSE
Current Station
Personal Weather Station
Location: Ravenden Springs, AR
Elevation: 680 ft
Nearby Weather Stations

Elev 680 ft 36.31 °N, 91.20 °W | Updated 1 second ago

Clear
Clear
73.2 °F
Feels Like 77 °F
N
0.0
Wind Variable Wind from SSW
Gusts 0.0 mph

Today
High -- | Low -- °F
--% Chance of Precip.
Yesterday
High -- | Low -- °F
Precip. -- in
6:49 AM 7:05 PM
Waning Crescent, 16% visible
Pressure 29.99 in
Visibility 10.0 miles
Clouds Clear
Heat Index 77 °F
Dew Point 52 °F
Humidity 47%
Rainfall 0.00 in
Snow Depth Not available.
UV 0 out of 12
Pollen 7.40 out of 12
Air Quality Not available.
Flu Activity Not available.
METAR KARG 192355Z AUTO 00000KT 10SM CLR 26/18 A2999 RMK AO1 10280 20260 402800160 57003

More Conditions Fewer Conditions

Pressure 29.99 in
Visibility 10.0 miles
Clouds Clear
Heat Index 77 °F
Dew Point 52 °F
Humidity 47%
Rainfall 0.00 in
Snow Depth Not available.
UV 0 out of 12
Pollen 7.40 out of 12
Air Quality Not available.
Flu Activity Not available.
METAR KARG 192355Z AUTO 00000KT 10SM CLR 26/18 A2999 RMK AO1 10280 20260 402800160 57003

More Conditions Fewer Conditions

10-Day Weather Forecast

Almanac

Astronomy

Sep. 19, 2014 Rise Set
Actual Time 6:49 AM CDT 7:05 PM CDT
Civil Twilight 6:23 AM CDT 7:31 PM CDT
Nautical Twilight 5:53 AM CDT 8:01 PM CDT
Astronomical Twilight 5:23 AM CDT 8:31 PM CDT
Moon 2:41 AM CDT (9/19) 4:29 PM CDT (9/19)
Length of Visible Light 13h 07m
Length of Day
12h 15m
Tomorrow will be 2m 17s shorter.
Waning Crescent, 16% of the Moon is Illuminated
Today
Waning Crescent
Sep 24
New
Oct 1
First Quarter
Oct 8
Full
Oct 15
Last Quarter

Today's Extremes

State Highs State Lows

Community

WunderPhotos

Upload Photos

1,754,734 photos uploaded!

WunderBlogs® & News

Nearby

Snow Depth

Station Depth Elevation
No new snow has been reported.

Earthquake Activity

City Distance Mag. Time & Date
No recent earthquake activity has been reported nearby.
Minimum magnitude displayed is 2.5.

Coastal Water Temperatures

Place Temperature
No Stations Reporting

Nearby Weather Stations